createdAt,value
2023-02-01T00:01:31.303Z,72.10
2023-02-01T00:04:00.156Z,72.10
2023-02-01T00:06:28.614Z,72.00
2023-02-01T00:08:57.495Z,72.00
2023-02-01T00:11:25.963Z,71.90
2023-02-01T00:13:54.670Z,72.00
2023-02-01T00:16:28.316Z,72.00
2023-02-01T00:19:03.949Z,72.00
2023-02-01T00:21:33.146Z,71.90
2023-02-01T00:24:01.870Z,72.00
2023-02-01T00:26:30.203Z,71.90
2023-02-01T00:28:59.103Z,71.90
2023-02-01T00:31:29.463Z,72.00
2023-02-01T00:33:58.731Z,72.00
2023-02-01T00:36:27.267Z,71.90
2023-02-01T00:38:56.138Z,71.90
2023-02-01T00:41:24.859Z,71.80
2023-02-01T00:43:53.652Z,72.00
2023-02-01T00:46:22.870Z,72.10
2023-02-01T00:48:51.768Z,72.30
2023-02-01T00:51:24.053Z,72.00
2023-02-01T00:53:52.857Z,71.80
2023-02-01T00:56:21.468Z,71.80
2023-02-01T00:58:50.327Z,73.10
2023-02-01T01:01:22.024Z,72.00
2023-02-01T01:03:57.797Z,71.80
2023-02-01T01:06:33.093Z,72.00
2023-02-01T01:09:05.278Z,71.90
2023-02-01T01:11:36.775Z,72.40
2023-02-01T01:14:09.016Z,71.90
2023-02-01T01:16:38.028Z,73.40
2023-02-01T01:19:07.920Z,72.20
2023-02-01T01:21:36.286Z,72.10
2023-02-01T01:24:05.902Z,72.00
2023-02-01T01:26:34.346Z,73.00
2023-02-01T01:29:03.099Z,73.70
2023-02-01T01:31:32.011Z,72.60
2023-02-01T01:34:00.957Z,72.40
2023-02-01T01:36:30.441Z,73.20
2023-02-01T01:38:59.260Z,73.30
2023-02-01T01:41:32.151Z,73.20
2023-02-01T01:44:46.444Z,72.70
2023-02-01T01:47:16.067Z,71.90
2023-02-01T01:49:44.958Z,71.70
2023-02-01T01:52:14.056Z,72.40
2023-02-01T01:54:47.459Z,71.60
2023-02-01T01:57:33.717Z,72.30
2023-02-01T02:00:14.818Z,71.60
2023-02-01T02:02:45.539Z,71.50
2023-02-01T02:05:15.143Z,71.50
2023-02-01T02:07:46.687Z,71.70
2023-02-01T02:10:15.649Z,71.60
2023-02-01T02:12:46.326Z,72.80
2023-02-01T02:15:16.125Z,71.90
2023-02-01T02:17:59.724Z,71.50
2023-02-01T02:21:04.576Z,71.60
2023-02-01T02:23:54.726Z,71.60
2023-02-01T02:26:32.310Z,74.80
2023-02-01T02:29:15.724Z,76.70
2023-02-01T02:32:15.005Z,78.80
2023-02-01T02:34:58.941Z,78.50
2023-02-01T02:37:34.849Z,78.00
2023-02-01T02:40:32.564Z,79.10
2023-02-01T02:44:09.393Z,79.70
2023-02-01T02:47:04.395Z,83.10
2023-02-01T02:49:43.766Z,71.20
2023-02-01T02:52:37.361Z,71.30
2023-02-01T02:55:06.461Z,72.20
2023-02-01T02:57:59.506Z,72.10
2023-02-01T03:00:52.149Z,71.10
2023-02-01T03:03:39.508Z,72.20
2023-02-01T03:06:16.039Z,72.40
2023-02-01T03:08:46.487Z,70.90
2023-02-01T03:11:15.863Z,71.80
2023-02-01T03:14:01.348Z,71.60
2023-02-01T03:16:49.181Z,71.90
2023-02-01T03:19:35.836Z,71.30
2023-02-01T03:22:11.145Z,71.40
2023-02-01T03:24:41.659Z,71.40
2023-02-01T03:27:29.159Z,71.20
2023-02-01T03:30:12.429Z,70.90
2023-02-01T03:33:00.451Z,71.20
2023-02-01T03:36:08.333Z,71.40
2023-02-01T03:39:10.670Z,71.20
2023-02-01T03:41:44.101Z,70.80
2023-02-01T03:44:22.167Z,71.40
2023-02-01T03:47:16.337Z,71.40
2023-02-01T03:49:52.540Z,70.90
2023-02-01T03:52:38.874Z,71.00
2023-02-01T03:55:08.298Z,70.70
2023-02-01T03:57:41.325Z,70.70
2023-02-01T04:00:31.832Z,70.80
2023-02-01T04:03:01.149Z,70.70
2023-02-01T04:05:31.531Z,71.40
2023-02-01T04:08:06.348Z,70.80
2023-02-01T04:10:35.152Z,70.60
2023-02-01T04:13:03.710Z,70.60
2023-02-01T04:15:32.663Z,70.50
2023-02-01T04:18:01.232Z,70.80
2023-02-01T04:20:30.219Z,70.80
2023-02-01T04:22:58.924Z,70.60
2023-02-01T04:25:27.966Z,70.50
2023-02-01T04:27:56.512Z,70.70
2023-02-01T04:30:26.614Z,70.60
2023-02-01T04:32:55.141Z,70.30
2023-02-01T04:35:24.119Z,70.30
2023-02-01T04:37:52.659Z,71.60
2023-02-01T04:40:22.858Z,72.00
2023-02-01T04:42:51.588Z,71.30
2023-02-01T04:45:20.500Z,70.80
2023-02-01T04:47:50.430Z,70.30
2023-02-01T04:50:19.452Z,70.00
2023-02-01T04:52:48.187Z,69.90
2023-02-01T04:55:17.311Z,69.80
2023-02-01T04:57:45.839Z,69.60
2023-02-01T05:00:15.561Z,69.40
2023-02-01T05:02:44.189Z,69.00
2023-02-01T05:05:13.088Z,68.80
2023-02-01T05:07:41.609Z,68.40
2023-02-01T05:10:11.959Z,68.30
2023-02-01T05:12:59.258Z,68.00
2023-02-01T05:15:28.210Z,67.60
2023-02-01T05:17:57.927Z,67.50
2023-02-01T05:20:26.953Z,67.40
2023-02-01T05:22:55.492Z,68.00
2023-02-01T05:25:24.399Z,67.10
2023-02-01T05:27:52.899Z,67.00
2023-02-01T05:30:22.439Z,67.00
2023-02-01T05:32:53.181Z,66.70
2023-02-01T05:35:22.082Z,66.50
2023-02-01T05:37:50.668Z,66.30
2023-02-01T05:40:19.619Z,66.10
2023-02-01T05:42:48.192Z,65.90
2023-02-01T05:45:17.317Z,66.00
2023-02-01T05:47:45.858Z,65.90
2023-02-01T05:50:15.047Z,66.00
2023-02-01T05:52:43.609Z,65.70
2023-02-01T05:55:41.287Z,65.70
2023-02-01T05:58:09.849Z,65.60
2023-02-01T06:00:38.838Z,65.50
2023-02-01T06:50:29.020Z,65.20
2023-02-01T06:52:57.769Z,65.00
2023-02-01T06:55:26.567Z,65.00
2023-02-01T06:57:56.129Z,65.00
2023-02-01T07:00:25.445Z,65.20
2023-02-01T07:02:54.328Z,65.30
2023-02-01T07:05:23.178Z,65.20
2023-02-01T07:07:51.731Z,65.40
2023-02-01T07:10:20.666Z,65.50
2023-02-01T07:12:49.378Z,65.70
2023-02-01T07:15:18.406Z,65.80
2023-02-01T07:17:48.193Z,65.80
2023-02-01T07:20:18.019Z,65.70
2023-02-01T07:22:46.480Z,65.60
2023-02-01T07:25:15.418Z,65.70
2023-02-01T07:27:43.921Z,66.10
2023-02-01T07:30:13.419Z,66.10
2023-02-01T07:32:42.291Z,66.50
2023-02-01T07:35:11.226Z,66.70
2023-02-01T07:37:39.727Z,66.50
2023-02-01T07:40:09.500Z,66.50
2023-02-01T07:42:38.015Z,66.30
2023-02-01T07:45:20.514Z,66.20
2023-02-01T07:47:50.373Z,66.20
2023-02-01T07:50:19.289Z,66.10
2023-02-01T07:52:47.776Z,66.10
2023-02-01T07:55:17.896Z,66.10
2023-02-01T07:57:46.552Z,66.10
2023-02-01T08:00:34.689Z,66.30
2023-02-01T08:03:04.439Z,66.30
2023-02-01T08:05:33.401Z,66.50
2023-02-01T08:08:02.152Z,66.50
2023-02-01T08:10:30.944Z,66.90
2023-02-01T08:13:01.368Z,67.80
2023-02-01T08:15:30.669Z,68.10
2023-02-01T08:17:59.788Z,68.30
2023-02-01T08:20:29.600Z,68.40
2023-02-01T08:22:58.018Z,68.50
2023-02-01T08:25:26.811Z,67.80
2023-02-01T08:27:56.013Z,68.00
2023-02-01T08:30:25.017Z,67.60
2023-02-01T08:32:53.668Z,68.30
2023-02-01T08:35:25.762Z,68.20
2023-02-01T08:37:59.159Z,68.40
2023-02-01T08:40:27.971Z,68.40
2023-02-01T08:42:57.268Z,68.30
2023-02-01T08:45:29.190Z,68.50
2023-02-01T08:47:58.005Z,68.10
2023-02-01T08:50:27.248Z,68.30
2023-02-01T08:52:55.977Z,68.50
2023-02-01T08:55:24.850Z,68.50
2023-02-01T08:57:53.466Z,68.30
2023-02-01T09:00:23.980Z,68.60
2023-02-01T09:02:52.708Z,68.40
2023-02-01T09:05:24.322Z,68.40
2023-02-01T09:07:52.867Z,68.10
2023-02-01T09:10:34.287Z,68.00
2023-02-01T09:13:04.277Z,68.00
2023-02-01T09:15:33.137Z,68.10
2023-02-01T09:18:01.693Z,67.90
2023-02-01T09:20:30.741Z,67.80
2023-02-01T09:22:59.164Z,67.70
2023-02-01T09:45:56.221Z,67.70
2023-02-01T10:26:26.555Z,67.60
2023-02-01T10:29:03.721Z,69.30
2023-02-01T10:31:36.533Z,69.40
2023-02-01T10:36:49.525Z,70.20
2023-02-01T10:39:18.492Z,69.40
2023-02-01T10:44:29.208Z,69.90
2023-02-01T10:46:57.756Z,69.70
2023-02-01T10:49:35.108Z,69.50
2023-02-01T10:57:29.542Z,69.40
2023-02-01T11:15:19.776Z,69.00
2023-02-01T11:17:52.722Z,67.90
2023-02-01T11:20:42.175Z,67.60
2023-02-01T11:26:00.469Z,67.50
2023-02-01T12:18:01.141Z,69.40
2023-02-01T12:20:58.750Z,71.30
2023-02-01T12:24:12.601Z,70.70
2023-02-01T12:26:56.186Z,71.10
2023-02-01T12:29:45.738Z,70.30
2023-02-01T12:32:46.159Z,70.40
2023-02-01T12:35:40.662Z,70.50
2023-02-01T12:38:22.869Z,70.60
2023-02-01T12:41:24.094Z,70.80
2023-02-01T12:44:32.619Z,70.90
2023-02-01T12:47:22.636Z,71.10
2023-02-01T12:50:06.380Z,71.30
2023-02-01T12:52:54.948Z,71.50
2023-02-01T12:55:41.701Z,71.60
2023-02-01T12:58:44.298Z,71.80
2023-02-01T13:01:36.817Z,71.90
2023-02-01T13:04:17.609Z,71.90
2023-02-01T13:07:09.251Z,72.10
2023-02-01T13:09:48.762Z,72.20
2023-02-01T13:12:27.334Z,72.30
2023-02-01T13:15:01.860Z,72.30
2023-02-01T13:17:33.479Z,72.30
2023-02-01T13:20:19.956Z,72.30
2023-02-01T13:22:56.411Z,72.30
2023-02-01T13:25:51.773Z,72.40
2023-02-01T13:28:48.791Z,72.40
2023-02-01T13:32:19.402Z,72.50
2023-02-01T13:38:16.763Z,72.60
2023-02-01T13:41:30.082Z,72.70
2023-02-01T13:44:15.372Z,72.80
2023-02-01T13:46:47.643Z,73.00
2023-02-01T13:49:26.515Z,73.00
2023-02-01T13:51:57.400Z,73.10
2023-02-01T13:54:39.259Z,73.10
2023-02-01T13:57:38.820Z,73.20
2023-02-01T14:00:31.649Z,73.30
2023-02-01T14:03:03.706Z,73.50
2023-02-01T14:05:32.734Z,73.50
2023-02-01T14:08:26.048Z,73.70
2023-02-01T14:10:59.515Z,73.70
2023-02-01T14:13:42.303Z,73.80
2023-02-01T14:16:17.874Z,74.00
2023-02-01T14:18:47.514Z,74.20
2023-02-01T14:21:33.392Z,74.20
2023-02-01T14:24:11.325Z,74.30
2023-02-01T14:26:43.868Z,74.30
2023-02-01T14:29:22.252Z,74.30
2023-02-01T14:32:13.983Z,74.40
2023-02-01T14:34:55.962Z,74.50
2023-02-01T14:37:33.151Z,74.50
2023-02-01T14:40:12.186Z,74.70
2023-02-01T14:42:43.883Z,74.80
2023-02-01T14:45:25.583Z,74.90
2023-02-01T15:06:41.636Z,75.10
2023-02-01T21:01:19.757Z,76.70
2023-02-01T21:03:48.220Z,81.60
2023-02-01T21:06:17.044Z,82.00
2023-02-01T21:08:45.418Z,81.90
2023-02-01T21:13:50.902Z,81.90
2023-02-01T21:16:21.669Z,81.80
2023-02-01T21:18:53.903Z,81.70
2023-02-01T21:21:22.824Z,81.70
2023-02-01T21:23:52.988Z,81.70
2023-02-01T21:33:53.475Z,82.30
2023-02-01T21:59:10.630Z,81.60
2023-02-01T22:01:40.703Z,80.70
2023-02-01T22:04:10.411Z,80.80
2023-02-01T22:06:47.114Z,80.70
2023-02-01T22:09:24.247Z,80.50
